Time;durP1;ratioP1;P1;durP2;ratioP2;P2;SDS_P1;SDS_P2;PMS_P1;PMS_P2;Temp;Humidity;BMP_temperature;BMP_pressure;BME280_temperature;BME280_humidity;BME280_pressure;Samples;Min_cycle;Max_cycle;Signal;HPM_P1;HPM_P2
2023/04/01 00:00:49;;;;;;;;;;;18.40;49.50;;;;;;5054109;28;19999;-76
2023/04/01 00:03:15;;;;;;;;;;;18.30;49.50;;;;;;5053758;28;20004;-75
2023/04/01 00:05:40;;;;;;;;;;;18.40;49.40;;;;;;5054219;28;19991;-75
2023/04/01 00:08:06;;;;;;;;;;;18.30;49.40;;;;;;5053750;28;20520;-76
2023/04/01 00:10:32;;;;;;;;;;;18.40;49.30;;;;;;5053694;28;20454;-75
2023/04/01 00:12:58;;;;;;;;;;;18.40;49.30;;;;;;5053371;28;19913;-76
2023/04/01 00:15:24;;;;;;;;;;;18.40;49.30;;;;;;5053387;28;19916;-76
2023/04/01 00:17:50;;;;;;;;;;;18.10;49.30;;;;;;5053537;28;19920;-76
2023/04/01 00:20:16;;;;;;;;;;;18.30;49.40;;;;;;5053672;28;19915;-76
2023/04/01 00:22:42;;;;;;;;;;;18.30;49.40;;;;;;5035843;28;20350;-76
2023/04/01 00:25:08;;;;;;;;;;;18.30;49.40;;;;;;5035480;28;19956;-75
2023/04/01 00:27:34;;;;;;;;;;;18.30;49.50;;;;;;5053561;28;19942;-75
2023/04/01 00:29:59;;;;;;;;;;;18.30;49.50;;;;;;5053335;28;20436;-76
2023/04/01 00:32:26;;;;;;;;;;;18.20;49.40;;;;;;5035032;28;20311;-76
2023/04/01 00:34:52;;;;;;;;;;;18.30;49.40;;;;;;5035494;28;19912;-76
2023/04/01 00:37:19;;;;;;;;;;;18.40;49.40;;;;;;5035379;28;20395;-76
2023/04/01 00:39:45;;;;;;;;;;;18.30;49.40;;;;;;5053151;28;19913;-76
2023/04/01 00:42:12;;;;;;;;;;;18.40;49.40;;;;;;5052949;28;19940;-76
2023/04/01 00:44:38;;;;;;;;;;;18.40;49.40;;;;;;5035236;28;19913;-76
2023/04/01 00:47:04;;;;;;;;;;;18.30;49.40;;;;;;5035141;28;19962;-75
2023/04/01 00:49:32;;;;;;;;;;;18.40;49.40;;;;;;5017856;28;20465;-76
2023/04/01 00:52:00;;;;;;;;;;;18.30;49.40;;;;;;5035237;28;20247;-75
2023/04/01 00:54:26;;;;;;;;;;;18.40;49.50;;;;;;5035098;28;19909;-75
2023/04/01 00:56:55;;;;;;;;;;;18.30;49.50;;;;;;5035005;28;19908;-75
2023/04/01 00:59:27;;;;;;;;;;;18.30;49.50;;;;;;5018723;28;19912;-76
2023/04/01 01:01:53;;;;;;;;;;;18.40;49.50;;;;;;5030188;28;19909;-76
2023/04/01 01:04:27;;;;;;;;;;;18.20;49.50;;;;;;5030258;28;20455;-76
2023/04/01 01:06:56;;;;;;;;;;;18.30;49.60;;;;;;5013863;28;19913;-76
2023/04/01 01:09:21;;;;;;;;;;;18.30;49.70;;;;;;5013782;28;20422;-76
2023/04/01 01:12:00;;;;;;;;;;;18.30;49.70;;;;;;5013652;28;19912;-76
2023/04/01 01:14:32;;;;;;;;;;;18.20;49.60;;;;;;5029937;28;20434;-76
2023/04/01 01:17:00;;;;;;;;;;;18.20;49.70;;;;;;5030423;28;19913;-76
2023/04/01 01:19:55;;;;;;;;;;;18.20;49.70;;;;;;5029975;28;20636;-76
2023/04/01 01:22:25;;;;;;;;;;;18.10;49.70;;;;;;4990490;28;20412;-76
2023/04/01 01:24:56;;;;;;;;;;;18.10;49.80;;;;;;4971165;28;20397;-76
2023/04/01 01:27:22;;;;;;;;;;;18.10;49.90;;;;;;4971164;28;19965;-76
2023/04/01 01:30:00;;;;;;;;;;;18.10;50.00;;;;;;4954882;28;19953;-76
2023/04/01 01:32:44;;;;;;;;;;;18.10;50.00;;;;;;4970984;28;19910;-75
2023/04/01 01:35:16;;;;;;;;;;;18.10;49.80;;;;;;4971097;28;20306;-76
2023/04/01 01:37:43;;;;;;;;;;;18.10;49.80;;;;;;4971180;28;19914;-75
2023/04/01 01:40:11;;;;;;;;;;;18.10;49.80;;;;;;4970977;28;20016;-76
2023/04/01 01:42:39;;;;;;;;;;;18.10;49.80;;;;;;4970685;28;20412;-75
2023/04/01 01:45:06;;;;;;;;;;;18.10;49.80;;;;;;4970725;28;20393;-76
2023/04/01 01:47:33;;;;;;;;;;;18.10;49.90;;;;;;4970632;28;20432;-76
2023/04/01 01:50:01;;;;;;;;;;;18.10;50.00;;;;;;4970847;28;19909;-76
2023/04/01 01:52:28;;;;;;;;;;;17.90;49.90;;;;;;4970748;28;19910;-76
2023/04/01 01:54:55;;;;;;;;;;;18.00;49.90;;;;;;4932147;29;19925;-76
2023/04/01 01:57:29;;;;;;;;;;;18.00;49.90;;;;;;4932321;29;19981;-76
2023/04/01 02:00:12;;;;;;;;;;;18.00;50.00;;;;;;4970454;28;19944;-76
2023/04/01 02:02:42;;;;;;;;;;;18.00;50.00;;;;;;4970524;28;19945;-75
2023/04/01 02:05:10;;;;;;;;;;;18.00;50.00;;;;;;4954406;28;20417;-76
2023/04/01 02:07:37;;;;;;;;;;;18.00;49.90;;;;;;4954562;28;19924;-76
2023/04/01 02:10:03;;;;;;;;;;;18.10;50.00;;;;;;4915367;29;19911;-76
2023/04/01 02:12:30;;;;;;;;;;;18.10;50.00;;;;;;4932662;29;19925;-76
2023/04/01 02:15:02;;;;;;;;;;;17.80;49.70;;;;;;4979897;28;20013;-76
2023/04/01 02:17:29;;;;;;;;;;;18.10;49.80;;;;;;4989954;28;19949;-76
2023/04/01 02:20:07;;;;;;;;;;;18.20;49.70;;;;;;4989700;28;20349;-76
2023/04/01 02:22:35;;;;;;;;;;;18.10;49.70;;;;;;4989910;28;19918;-76
2023/04/01 02:25:04;;;;;;;;;;;18.10;49.70;;;;;;4997181;28;19913;-76
2023/04/01 02:27:31;;;;;;;;;;;18.10;49.70;;;;;;5032479;28;19913;-76
2023/04/01 02:29:57;;;;;;;;;;;18.00;49.70;;;;;;5032254;28;19908;-76
2023/04/01 02:32:25;;;;;;;;;;;18.10;49.80;;;;;;5032487;28;19909;-76
2023/04/01 02:34:51;;;;;;;;;;;18.20;49.80;;;;;;5015547;28;19913;-76
2023/04/01 02:37:17;;;;;;;;;;;18.10;49.90;;;;;;5032352;28;20467;-76
2023/04/01 02:39:43;;;;;;;;;;;18.10;49.90;;;;;;5048831;28;19919;-76
2023/04/01 02:42:09;;;;;;;;;;;18.00;49.80;;;;;;5048755;28;19913;-76
2023/04/01 02:44:34;;;;;;;;;;;18.10;50.00;;;;;;5032151;28;19951;-76
2023/04/01 02:47:00;;;;;;;;;;;18.10;49.90;;;;;;5069863;28;19935;-76
2023/04/01 02:49:26;;;;;;;;;;;18.00;49.80;;;;;;5069973;28;19916;-76
2023/04/01 02:51:52;;;;;;;;;;;17.90;49.80;;;;;;5071195;28;20000;-75
2023/04/01 02:54:19;;;;;;;;;;;18.00;49.90;;;;;;5069839;28;20094;-76
2023/04/01 02:56:45;;;;;;;;;;;17.90;49.90;;;;;;5070099;28;20003;-76
2023/04/01 02:59:12;;;;;;;;;;;18.00;50.00;;;;;;5069909;28;19975;-76
2023/04/01 03:01:38;;;;;;;;;;;18.00;50.00;;;;;;5070100;28;19908;-76
2023/04/01 03:04:04;;;;;;;;;;;18.00;50.00;;;;;;5070872;28;20291;-76
2023/04/01 03:06:30;;;;;;;;;;;18.00;50.00;;;;;;5071444;28;19913;-76
2023/04/01 03:08:56;;;;;;;;;;;18.00;49.90;;;;;;5070941;28;19963;-76
2023/04/01 03:11:22;;;;;;;;;;;18.00;49.90;;;;;;5070991;28;19955;-76
2023/04/01 03:13:48;;;;;;;;;;;18.00;49.80;;;;;;5069530;28;19931;-76
2023/04/01 03:16:15;;;;;;;;;;;18.00;49.80;;;;;;5069972;28;19978;-76
2023/04/01 03:18:41;;;;;;;;;;;18.00;49.90;;;;;;5070047;28;20360;-76
2023/04/01 03:21:17;;;;;;;;;;;18.00;49.90;;;;;;5072951;28;20023;-76
2023/04/01 03:23:43;;;;;;;;;;;17.90;50.00;;;;;;5074662;28;19955;-76
2023/04/01 03:26:09;;;;;;;;;;;18.00;50.00;;;;;;5073351;28;19956;-76
2023/04/01 03:28:35;;;;;;;;;;;17.90;50.00;;;;;;5073484;28;19920;-75
2023/04/01 03:31:01;;;;;;;;;;;17.90;50.10;;;;;;5074499;28;19915;-76
2023/04/01 03:33:29;;;;;;;;;;;17.90;50.10;;;;;;5073911;28;19909;-75
2023/04/01 03:35:55;;;;;;;;;;;17.90;50.10;;;;;;5074323;28;19961;-76
2023/04/01 03:38:21;;;;;;;;;;;18.00;50.00;;;;;;5073318;28;19954;-76
2023/04/01 03:40:47;;;;;;;;;;;18.00;50.00;;;;;;5073056;28;20296;-76
2023/04/01 03:43:13;;;;;;;;;;;18.10;50.00;;;;;;5073310;28;19981;-76
2023/04/01 03:45:45;;;;;;;;;;;18.10;49.90;;;;;;5072927;28;19957;-75
2023/04/01 03:48:13;;;;;;;;;;;18.10;49.70;;;;;;5072973;28;19916;-75
2023/04/01 03:50:39;;;;;;;;;;;18.20;49.60;;;;;;5073107;28;20283;-76
2023/04/01 03:53:05;;;;;;;;;;;18.10;49.50;;;;;;5056370;28;19912;-75
2023/04/01 03:55:31;;;;;;;;;;;18.10;49.50;;;;;;5072579;28;19916;-76
2023/04/01 03:57:57;;;;;;;;;;;18.10;49.50;;;;;;5072628;28;19909;-76
2023/04/01 04:00:23;;;;;;;;;;;18.10;49.50;;;;;;5051464;28;19920;-76
2023/04/01 04:02:55;;;;;;;;;;;18.00;49.50;;;;;;5031429;28;19909;-75
2023/04/01 04:05:27;;;;;;;;;;;18.10;49.60;;;;;;4999191;28;19908;-76
2023/04/01 04:07:53;;;;;;;;;;;18.00;49.50;;;;;;5014839;28;20015;-75
2023/04/01 04:10:19;;;;;;;;;;;18.10;49.60;;;;;;5015000;28;19920;-76
2023/04/01 04:12:45;;;;;;;;;;;18.10;49.60;;;;;;5031380;28;19920;-75
2023/04/01 04:15:12;;;;;;;;;;;18.10;49.60;;;;;;5031200;28;19917;-76
2023/04/01 04:17:38;;;;;;;;;;;18.10;49.50;;;;;;5014794;28;19913;-75
2023/04/01 04:20:04;;;;;;;;;;;18.00;49.40;;;;;;5031463;28;19913;-75
2023/04/01 04:22:30;;;;;;;;;;;18.10;49.50;;;;;;4998322;28;20257;-76
2023/04/01 04:24:56;;;;;;;;;;;18.10;49.50;;;;;;5014269;28;20022;-76
2023/04/01 04:27:22;;;;;;;;;;;18.10;49.50;;;;;;5014780;28;20300;-75
2023/04/01 04:30:05;;;;;;;;;;;18.10;49.60;;;;;;5014583;28;19917;-76
2023/04/01 04:32:31;;;;;;;;;;;18.00;49.50;;;;;;5030435;28;20519;-76
2023/04/01 04:34:57;;;;;;;;;;;18.10;49.70;;;;;;5053983;28;19908;-76
2023/04/01 04:37:25;;;;;;;;;;;18.10;49.70;;;;;;5055627;28;19908;-76
2023/04/01 04:39:51;;;;;;;;;;;18.20;49.60;;;;;;5055446;28;20307;-76
2023/04/01 04:42:17;;;;;;;;;;;18.20;49.40;;;;;;5055356;28;19908;-76
2023/04/01 04:44:43;;;;;;;;;;;18.10;49.40;;;;;;5038341;28;19918;-76
2023/04/01 04:47:10;;;;;;;;;;;18.10;49.40;;;;;;5055233;28;19944;-76
2023/04/01 04:49:36;;;;;;;;;;;18.10;49.30;;;;;;5072837;28;19974;-76
2023/04/01 04:52:06;;;;;;;;;;;18.20;49.40;;;;;;5055207;28;19919;-76
2023/04/01 04:54:33;;;;;;;;;;;18.20;49.30;;;;;;5055038;28;19909;-76
2023/04/01 04:57:00;;;;;;;;;;;18.10;49.40;;;;;;5055392;28;19962;-75
2023/04/01 04:59:30;;;;;;;;;;;18.10;49.50;;;;;;5055210;28;19912;-75
2023/04/01 05:02:12;;;;;;;;;;;18.10;49.50;;;;;;5054856;28;19995;-76
2023/04/01 05:04:38;;;;;;;;;;;18.20;49.70;;;;;;5054843;28;20011;-76
2023/04/01 05:07:08;;;;;;;;;;;18.00;49.60;;;;;;5055591;28;19912;-76
2023/04/01 05:09:34;;;;;;;;;;;18.10;49.70;;;;;;5072376;28;19965;-76
2023/04/01 05:12:00;;;;;;;;;;;18.20;49.60;;;;;;5037955;28;19912;-76
2023/04/01 05:14:31;;;;;;;;;;;18.20;49.50;;;;;;5062790;28;19917;-76
2023/04/01 05:17:08;;;;;;;;;;;18.30;49.50;;;;;;5071732;28;19948;-76
2023/04/01 05:19:34;;;;;;;;;;;18.30;49.40;;;;;;5071216;28;19912;-75
2023/04/01 05:22:00;;;;;;;;;;;18.30;49.40;;;;;;5071085;28;19996;-76
2023/04/01 05:24:26;;;;;;;;;;;18.40;49.40;;;;;;5071082;28;19912;-76
2023/04/01 05:26:51;;;;;;;;;;;18.30;49.10;;;;;;5071013;28;19946;-75
2023/04/01 05:29:18;;;;;;;;;;;18.30;49.10;;;;;;5071047;28;20369;-76
2023/04/01 05:31:46;;;;;;;;;;;18.30;49.00;;;;;;5054602;28;20387;-76
2023/04/01 05:34:13;;;;;;;;;;;18.30;49.10;;;;;;5072201;28;19908;-76
2023/04/01 05:36:38;;;;;;;;;;;18.40;49.10;;;;;;5070916;28;19957;-76
2023/04/01 05:39:05;;;;;;;;;;;18.30;49.00;;;;;;5054353;28;20245;-76
2023/04/01 05:41:30;;;;;;;;;;;18.50;48.90;;;;;;5070895;28;19915;-76
2023/04/01 05:43:56;;;;;;;;;;;18.40;48.90;;;;;;5071064;28;19912;-76
2023/04/01 05:46:41;;;;;;;;;;;18.50;48.90;;;;;;5072129;28;20003;-75
2023/04/01 05:49:16;;;;;;;;;;;18.30;49.00;;;;;;5070950;28;19927;-76
2023/04/01 05:51:42;;;;;;;;;;;18.30;49.00;;;;;;5070866;28;19908;-76
2023/04/01 05:54:09;;;;;;;;;;;18.40;48.90;;;;;;5070267;28;19965;-75
2023/04/01 05:56:35;;;;;;;;;;;18.40;48.70;;;;;;5049135;28;19909;-76
2023/04/01 05:59:01;;;;;;;;;;;18.40;48.70;;;;;;5032572;28;20038;-76
2023/04/01 06:01:27;;;;;;;;;;;18.40;48.70;;;;;;5049281;28;20451;-76
2023/04/01 06:03:53;;;;;;;;;;;18.50;48.90;;;;;;5049283;28;19908;-76
2023/04/01 06:06:29;;;;;;;;;;;18.30;48.80;;;;;;5049117;28;20034;-76
2023/04/01 06:09:12;;;;;;;;;;;18.40;48.70;;;;;;5033562;28;19917;-75
2023/04/01 06:12:04;;;;;;;;;;;18.50;48.80;;;;;;5049071;28;20277;-76
2023/04/01 06:14:36;;;;;;;;;;;18.50;48.80;;;;;;5031946;28;19970;-76
2023/04/01 06:17:06;;;;;;;;;;;18.40;48.70;;;;;;5032394;28;20295;-75
2023/04/01 06:19:39;;;;;;;;;;;18.40;48.40;;;;;;5049210;28;19934;-76
2023/04/01 06:22:24;;;;;;;;;;;18.40;48.80;;;;;;5032281;28;19982;-75
2023/04/01 06:24:59;;;;;;;;;;;18.40;48.80;;;;;;5048894;28;20475;-76
2023/04/01 06:27:43;;;;;;;;;;;18.40;48.80;;;;;;5048670;28;20010;-76
2023/04/01 06:30:19;;;;;;;;;;;18.40;49.00;;;;;;5032374;28;19928;-75
2023/04/01 06:32:45;;;;;;;;;;;18.40;48.90;;;;;;5048927;28;20007;-77
2023/04/01 06:35:11;;;;;;;;;;;18.40;48.90;;;;;;5032241;28;20003;-76
2023/04/01 06:37:50;;;;;;;;;;;18.40;48.90;;;;;;5032333;28;20337;-76
2023/04/01 06:40:31;;;;;;;;;;;18.50;48.90;;;;;;5032290;28;19913;-76
2023/04/01 06:43:16;;;;;;;;;;;18.60;48.90;;;;;;5032861;28;19908;-76
2023/04/01 06:46:19;;;;;;;;;;;18.50;48.80;;;;;;5048500;28;19915;-76
2023/04/01 06:49:10;;;;;;;;;;;18.60;48.70;;;;;;5049071;28;19927;-76
2023/04/01 06:52:14;;;;;;;;;;;18.50;48.70;;;;;;5048872;28;19908;-75
2023/04/01 06:55:01;;;;;;;;;;;18.50;48.70;;;;;;5049820;28;19912;-75
2023/04/01 06:58:03;;;;;;;;;;;18.60;48.60;;;;;;5005819;28;19909;-76
2023/04/01 07:00:29;;;;;;;;;;;18.60;48.60;;;;;;5016170;28;19909;-75
2023/04/01 07:03:19;;;;;;;;;;;18.60;48.60;;;;;;5032685;28;19913;-76
2023/04/01 07:05:45;;;;;;;;;;;18.60;48.60;;;;;;4999716;28;19919;-76
2023/04/01 07:08:29;;;;;;;;;;;18.70;48.80;;;;;;4999326;28;20409;-76
2023/04/01 07:11:03;;;;;;;;;;;18.70;48.70;;;;;;5016153;28;20007;-76
2023/04/01 07:13:51;;;;;;;;;;;18.60;48.60;;;;;;5032441;28;19928;-76
2023/04/01 07:16:40;;;;;;;;;;;18.60;48.60;;;;;;5016018;28;19909;-76
2023/04/01 07:19:16;;;;;;;;;;;18.70;48.70;;;;;;4973686;28;19933;-75
2023/04/01 07:22:04;;;;;;;;;;;18.60;48.60;;;;;;4973662;28;19914;-75
2023/04/01 07:24:49;;;;;;;;;;;18.60;48.60;;;;;;4973641;28;19914;-75
2023/04/01 07:27:15;;;;;;;;;;;18.60;48.60;;;;;;4973607;28;19914;-76
2023/04/01 07:29:43;;;;;;;;;;;18.60;48.60;;;;;;4973457;28;19928;-76
2023/04/01 07:32:18;;;;;;;;;;;18.60;48.60;;;;;;4973542;28;19913;-76
2023/04/01 07:35:02;;;;;;;;;;;18.50;48.70;;;;;;5011251;28;19948;-76
2023/04/01 07:37:28;;;;;;;;;;;18.50;48.80;;;;;;4995946;28;19910;-76
2023/04/01 07:40:00;;;;;;;;;;;18.50;48.80;;;;;;4995922;28;20269;-76
2023/04/01 07:42:37;;;;;;;;;;;18.50;48.80;;;;;;4995820;28;19910;-76
2023/04/01 07:45:15;;;;;;;;;;;18.50;48.80;;;;;;4979556;28;20013;-76
2023/04/01 07:47:50;;;;;;;;;;;18.70;48.90;;;;;;5012144;28;20000;-76
2023/04/01 07:50:29;;;;;;;;;;;18.50;48.80;;;;;;5012104;28;20003;-76
2023/04/01 07:52:55;;;;;;;;;;;18.60;48.60;;;;;;4995874;28;20384;-76
2023/04/01 07:55:44;;;;;;;;;;;18.60;48.60;;;;;;5009331;28;19908;-76
2023/04/01 07:58:17;;;;;;;;;;;18.60;48.60;;;;;;5073111;28;19958;-75
2023/04/01 08:00:51;;;;;;;;;;;18.60;48.60;;;;;;5072879;28;20028;-76
2023/04/01 08:03:38;;;;;;;;;;;18.60;48.50;;;;;;5072695;28;19912;-75
2023/04/01 08:06:09;;;;;;;;;;;18.60;48.40;;;;;;5071589;28;20007;-76
2023/04/01 08:08:51;;;;;;;;;;;18.60;48.40;;;;;;5051108;28;20758;-76
2023/04/01 08:11:37;;;;;;;;;;;18.70;48.60;;;;;;5051454;28;19920;-76
2023/04/01 08:14:31;;;;;;;;;;;18.60;48.40;;;;;;5051336;28;19927;-75
2023/04/01 08:17:19;;;;;;;;;;;18.60;48.50;;;;;;5050987;28;19908;-76
2023/04/01 08:20:14;;;;;;;;;;;18.60;48.50;;;;;;5034684;28;19913;-76
2023/04/01 08:22:45;;;;;;;;;;;18.80;48.60;;;;;;5034564;28;20470;-75
2023/04/01 08:25:25;;;;;;;;;;;18.70;48.40;;;;;;5034473;28;20050;-76
2023/04/01 08:27:59;;;;;;;;;;;18.90;48.40;;;;;;5034297;28;19920;-75
2023/04/01 08:30:37;;;;;;;;;;;18.90;48.30;;;;;;5034431;28;19912;-76
2023/04/01 08:33:08;;;;;;;;;;;18.80;48.00;;;;;;5018017;28;19909;-75
2023/04/01 08:35:40;;;;;;;;;;;18.90;48.00;;;;;;5034065;28;19912;-75
2023/04/01 08:38:10;;;;;;;;;;;18.90;48.10;;;;;;5034224;28;20026;-76
2023/04/01 08:40:42;;;;;;;;;;;18.90;48.20;;;;;;5034115;28;19916;-75
2023/04/01 08:43:26;;;;;;;;;;;18.90;48.30;;;;;;5034311;28;20067;-76
2023/04/01 08:46:06;;;;;;;;;;;18.80;48.40;;;;;;5033872;28;19943;-76
2023/04/01 08:48:47;;;;;;;;;;;18.90;48.50;;;;;;5034131;28;19917;-76
2023/04/01 08:51:27;;;;;;;;;;;18.80;48.40;;;;;;5034105;28;19920;-76
2023/04/01 08:53:58;;;;;;;;;;;18.80;48.50;;;;;;5067308;28;19934;-76
2023/04/01 08:56:43;;;;;;;;;;;18.70;48.50;;;;;;5033844;28;19948;-76
2023/04/01 08:59:15;;;;;;;;;;;18.60;48.40;;;;;;5047475;28;19908;-76
2023/04/01 09:01:54;;;;;;;;;;;18.80;48.50;;;;;;5071634;28;19915;-76
2023/04/01 09:05:00;;;;;;;;;;;18.70;48.50;;;;;;5072709;28;19909;-75
2023/04/01 09:07:29;;;;;;;;;;;18.70;48.40;;;;;;5071336;28;19919;-76
2023/04/01 09:10:16;;;;;;;;;;;18.70;48.50;;;;;;5071044;28;19917;-75
2023/04/01 09:12:48;;;;;;;;;;;18.70;48.60;;;;;;5071403;28;19917;-75
2023/04/01 09:15:14;;;;;;;;;;;18.80;48.60;;;;;;5071387;28;19916;-75
2023/04/01 09:17:51;;;;;;;;;;;18.70;48.60;;;;;;5070935;28;19913;-76
2023/04/01 09:20:24;;;;;;;;;;;18.70;48.80;;;;;;5073061;28;19908;-75
2023/04/01 09:22:50;;;;;;;;;;;18.80;48.80;;;;;;5071493;28;19931;-76
2023/04/01 09:25:16;;;;;;;;;;;18.80;48.70;;;;;;5071044;28;20367;-76
2023/04/01 09:27:51;;;;;;;;;;;18.80;48.60;;;;;;5071079;28;19952;-75
2023/04/01 09:30:33;;;;;;;;;;;18.80;48.60;;;;;;5071119;28;20380;-76
2023/04/01 09:33:05;;;;;;;;;;;18.70;48.60;;;;;;5070774;28;19912;-76
2023/04/01 09:35:47;;;;;;;;;;;18.70;48.70;;;;;;5071278;28;19916;-75
2023/04/01 09:38:19;;;;;;;;;;;18.70;48.80;;;;;;5072080;28;20656;-76
2023/04/01 09:40:49;;;;;;;;;;;18.60;48.80;;;;;;5071102;28;19908;-76
2023/04/01 09:43:32;;;;;;;;;;;18.60;48.90;;;;;;5070815;28;19919;-76
2023/04/01 09:46:00;;;;;;;;;;;18.70;49.00;;;;;;5070641;28;19908;-75
2023/04/01 09:48:26;;;;;;;;;;;18.60;48.80;;;;;;5070733;28;19920;-77
2023/04/01 09:51:00;;;;;;;;;;;18.80;49.00;;;;;;5053855;28;20382;-76
2023/04/01 09:53:33;;;;;;;;;;;18.80;49.00;;;;;;5070763;28;19995;-75
2023/04/01 09:56:31;;;;;;;;;;;18.70;48.90;;;;;;5070676;28;19913;-76
2023/04/01 09:59:00;;;;;;;;;;;18.80;48.90;;;;;;4973927;28;19953;-76
2023/04/01 10:01:54;;;;;;;;;;;18.80;48.90;;;;;;4989869;28;20358;-75
2023/04/01 10:04:42;;;;;;;;;;;18.80;48.80;;;;;;4974025;28;19909;-76
2023/04/01 10:07:17;;;;;;;;;;;18.80;48.80;;;;;;4973770;28;19920;-75
2023/04/01 10:09:52;;;;;;;;;;;18.80;48.90;;;;;;4973451;28;19922;-76
2023/04/01 10:12:41;;;;;;;;;;;18.80;49.00;;;;;;4973840;28;19914;-76
2023/04/01 10:15:10;;;;;;;;;;;18.70;49.00;;;;;;4931456;29;19925;-75
2023/04/01 10:17:39;;;;;;;;;;;18.70;49.00;;;;;;4931758;29;19998;-76
2023/04/01 10:20:20;;;;;;;;;;;18.90;48.90;;;;;;4912529;29;19911;-76
2023/04/01 10:22:55;;;;;;;;;;;18.80;48.90;;;;;;4912893;29;19959;-76
2023/04/01 10:25:24;;;;;;;;;;;18.80;48.80;;;;;;4912799;29;19915;-76
2023/04/01 10:28:12;;;;;;;;;;;18.80;48.90;;;;;;4881480;29;20059;-76
2023/04/01 10:31:03;;;;;;;;;;;18.80;48.80;;;;;;4912363;29;20009;-76
2023/04/01 10:33:35;;;;;;;;;;;18.80;48.80;;;;;;4899967;28;19955;-76
2023/04/01 10:36:30;;;;;;;;;;;18.70;49.20;;;;;;4970157;28;19910;-76
2023/04/01 10:39:15;;;;;;;;;;;18.70;48.90;;;;;;4915942;29;19915;-75
2023/04/01 10:41:41;;;;;;;;;;;18.70;48.90;;;;;;4915788;29;19910;-76
2023/04/01 10:44:31;;;;;;;;;;;18.70;49.00;;;;;;4880945;29;19950;-76
2023/04/01 10:47:25;;;;;;;;;;;18.80;48.90;;;;;;4831620;29;19968;-75
2023/04/01 10:50:11;;;;;;;;;;;18.80;48.80;;;;;;4890430;29;19927;-76
2023/04/01 10:52:49;;;;;;;;;;;18.90;48.90;;;;;;4909956;29;19995;-76
2023/04/01 10:55:52;;;;;;;;;;;18.80;48.70;;;;;;4931441;29;19915;-76
2023/04/01 10:59:02;;;;;;;;;;;18.90;48.80;;;;;;4912536;29;19911;-76
2023/04/01 11:01:47;;;;;;;;;;;19.00;48.70;;;;;;4912712;29;19911;-76
2023/04/01 11:04:39;;;;;;;;;;;18.90;48.70;;;;;;4856552;29;20007;-76
2023/04/01 11:07:40;;;;;;;;;;;18.80;48.60;;;;;;4855998;29;19916;-76
2023/04/01 11:10:06;;;;;;;;;;;18.90;48.60;;;;;;4841075;29;19919;-76
2023/04/01 11:12:42;;;;;;;;;;;18.90;48.60;;;;;;4841240;29;19949;-76
2023/04/01 11:15:27;;;;;;;;;;;18.80;48.60;;;;;;4856110;29;19920;-76
2023/04/01 11:17:58;;;;;;;;;;;18.80;48.60;;;;;;4841137;29;20282;-76
2023/04/01 11:20:55;;;;;;;;;;;19.00;48.60;;;;;;4856321;29;19916;-75
2023/04/01 11:23:41;;;;;;;;;;;19.00;48.70;;;;;;4856375;29;19912;-76
2023/04/01 11:26:16;;;;;;;;;;;19.10;48.60;;;;;;4851500;29;19956;-76
2023/04/01 11:29:15;;;;;;;;;;;19.00;48.50;;;;;;4837706;29;19920;-76
2023/04/01 11:31:42;;;;;;;;;;;19.10;48.60;;;;;;4837976;29;19956;-76
2023/04/01 11:34:15;;;;;;;;;;;19.10;48.60;;;;;;4864727;29;19917;-76
2023/04/01 11:36:55;;;;;;;;;;;19.10;48.50;;;;;;4912334;29;19915;-75
2023/04/01 11:39:24;;;;;;;;;;;19.10;48.40;;;;;;4912382;29;20344;-76
2023/04/01 11:42:38;;;;;;;;;;;19.10;48.40;;;;;;4974822;28;20238;-76
2023/04/01 11:45:23;;;;;;;;;;;19.10;48.40;;;;;;5026039;28;19910;-76
2023/04/01 11:47:56;;;;;;;;;;;19.10;48.40;;;;;;4995911;28;19959;-76
2023/04/01 11:50:52;;;;;;;;;;;19.10;48.40;;;;;;4995690;28;20258;-75
2023/04/01 11:53:26;;;;;;;;;;;19.00;48.30;;;;;;4937647;29;19911;-76
2023/04/01 11:55:52;;;;;;;;;;;19.00;48.20;;;;;;4953743;29;20018;-76
2023/04/01 11:58:18;;;;;;;;;;;19.10;48.20;;;;;;4953485;29;20388;-76
2023/04/01 12:00:46;;;;;;;;;;;19.20;48.20;;;;;;4937455;29;20341;-75
2023/04/01 12:03:21;;;;;;;;;;;19.10;48.10;;;;;;4953607;29;19910;-76
2023/04/01 12:06:11;;;;;;;;;;;19.20;48.10;;;;;;4953583;29;20592;-76
2023/04/01 12:08:44;;;;;;;;;;;19.10;48.00;;;;;;4953464;29;19926;-76
2023/04/01 12:11:22;;;;;;;;;;;19.10;48.00;;;;;;4953140;29;19965;-76
2023/04/01 12:13:55;;;;;;;;;;;19.10;48.00;;;;;;4953011;29;20005;-75
2023/04/01 12:16:21;;;;;;;;;;;19.10;48.00;;;;;;4953423;29;19910;-76
2023/04/01 12:18:58;;;;;;;;;;;19.10;48.10;;;;;;4953457;29;19920;-75
2023/04/01 12:21:42;;;;;;;;;;;19.20;48.20;;;;;;4971488;28;19911;-75
2023/04/01 12:24:31;;;;;;;;;;;19.20;48.10;;;;;;4992105;28;19913;-76
2023/04/01 12:27:15;;;;;;;;;;;19.20;48.30;;;;;;4989826;28;20241;-75
2023/04/01 12:29:41;;;;;;;;;;;19.10;48.20;;;;;;5021976;28;20001;-76
2023/04/01 12:32:07;;;;;;;;;;;19.20;48.20;;;;;;5073520;28;19952;-76
2023/04/01 12:34:33;;;;;;;;;;;19.20;48.30;;;;;;5073515;28;20554;-76
2023/04/01 12:37:11;;;;;;;;;;;19.10;48.30;;;;;;5073479;28;19908;-76
2023/04/01 12:39:55;;;;;;;;;;;19.10;48.40;;;;;;5073284;28;20361;-76
2023/04/01 12:42:39;;;;;;;;;;;18.90;48.30;;;;;;5073436;28;20563;-76
2023/04/01 12:45:16;;;;;;;;;;;19.10;48.60;;;;;;5073279;28;19908;-76
2023/04/01 12:47:57;;;;;;;;;;;18.90;48.50;;;;;;5073380;28;19908;-76
2023/04/01 12:50:32;;;;;;;;;;;19.00;48.80;;;;;;5073434;28;19957;-76
2023/04/01 12:53:09;;;;;;;;;;;18.90;48.80;;;;;;5072513;28;19954;-75
2023/04/01 12:55:37;;;;;;;;;;;19.10;48.80;;;;;;5073060;28;20340;-75
2023/04/01 12:58:03;;;;;;;;;;;19.00;48.60;;;;;;5072999;28;19912;-76
2023/04/01 13:00:40;;;;;;;;;;;19.10;48.70;;;;;;5072858;28;19908;-75
2023/04/01 13:03:06;;;;;;;;;;;19.00;48.50;;;;;;5072695;28;20322;-76
2023/04/01 13:05:53;;;;;;;;;;;19.10;48.60;;;;;;5073018;28;19919;-76
2023/04/01 13:08:36;;;;;;;;;;;19.10;48.40;;;;;;5072503;28;19974;-76
2023/04/01 13:11:08;;;;;;;;;;;19.10;48.40;;;;;;5072690;28;19946;-75
2023/04/01 13:13:47;;;;;;;;;;;19.20;48.20;;;;;;5050093;28;19925;-76
2023/04/01 13:16:13;;;;;;;;;;;19.10;48.20;;;;;;5050421;28;19908;-76
2023/04/01 13:18:45;;;;;;;;;;;19.20;48.50;;;;;;5033476;28;19909;-76
2023/04/01 13:21:11;;;;;;;;;;;19.20;48.40;;;;;;5033728;28;19908;-76
2023/04/01 13:23:42;;;;;;;;;;;19.10;48.50;;;;;;5049983;28;19913;-76
2023/04/01 13:26:24;;;;;;;;;;;19.20;48.50;;;;;;5033483;28;20373;-76
2023/04/01 13:28:55;;;;;;;;;;;19.20;48.50;;;;;;5049893;28;19925;-75
2023/04/01 13:31:21;;;;;;;;;;;19.20;48.40;;;;;;5049793;28;19908;-76
2023/04/01 13:33:50;;;;;;;;;;;19.10;48.40;;;;;;5049798;28;20305;-76
2023/04/01 13:36:22;;;;;;;;;;;19.10;48.40;;;;;;5049969;28;19913;-76
2023/04/01 13:38:48;;;;;;;;;;;19.00;48.30;;;;;;5049730;28;19908;-75
2023/04/01 13:41:22;;;;;;;;;;;19.10;48.30;;;;;;5049886;28;19916;-76
2023/04/01 13:43:51;;;;;;;;;;;19.10;48.60;;;;;;5053955;28;20431;-75
2023/04/01 13:46:17;;;;;;;;;;;19.10;48.60;;;;;;5072018;28;20002;-77
2023/04/01 13:48:46;;;;;;;;;;;19.00;48.40;;;;;;5072062;28;19916;-77
2023/04/01 13:51:12;;;;;;;;;;;19.10;48.60;;;;;;5071962;28;20352;-77
2023/04/01 13:53:56;;;;;;;;;;;19.10;48.60;;;;;;5072112;28;20290;-76
2023/04/01 13:56:22;;;;;;;;;;;19.10;49.00;;;;;;5072154;28;19912;-76
2023/04/01 13:58:50;;;;;;;;;;;19.10;48.70;;;;;;5071528;28;20279;-77
2023/04/01 14:01:31;;;;;;;;;;;19.10;49.10;;;;;;5072039;28;20018;-76
2023/04/01 14:04:03;;;;;;;;;;;19.10;48.90;;;;;;5071076;28;19908;-76
2023/04/01 14:06:32;;;;;;;;;;;19.20;48.70;;;;;;5070569;28;20380;-77
2023/04/01 14:09:10;;;;;;;;;;;19.20;48.90;;;;;;5071490;28;19916;-76
2023/04/01 14:11:41;;;;;;;;;;;19.20;48.90;;;;;;5053899;28;19916;-76
2023/04/01 14:14:07;;;;;;;;;;;19.30;48.70;;;;;;5063190;28;19916;-76
2023/04/01 14:16:45;;;;;;;;;;;19.30;48.60;;;;;;5051838;28;19920;-76
2023/04/01 14:19:30;;;;;;;;;;;19.40;48.60;;;;;;5051331;28;20376;-77
2023/04/01 14:21:55;;;;;;;;;;;19.40;48.70;;;;;;5051755;28;19909;-76
2023/04/01 14:24:34;;;;;;;;;;;19.60;48.40;;;;;;5033622;28;19915;-76
2023/04/01 14:27:27;;;;;;;;;;;19.50;48.40;;;;;;5051711;28;19909;-76
2023/04/01 14:29:53;;;;;;;;;;;19.70;48.30;;;;;;4950706;29;19925;-77
2023/04/01 14:32:28;;;;;;;;;;;19.70;48.30;;;;;;4950924;29;19910;-76
2023/04/01 14:35:03;;;;;;;;;;;19.70;48.30;;;;;;4951025;29;19921;-76
2023/04/01 14:37:47;;;;;;;;;;;19.80;48.10;;;;;;4951203;29;20048;-77
2023/04/01 14:40:17;;;;;;;;;;;19.80;48.10;;;;;;4950842;29;19914;-77
2023/04/01 14:43:01;;;;;;;;;;;19.70;48.20;;;;;;4950857;29;19918;-76
2023/04/01 14:45:27;;;;;;;;;;;20.00;48.30;;;;;;4950917;29;20006;-77
2023/04/01 14:47:56;;;;;;;;;;;20.00;48.30;;;;;;4950715;29;19918;-77
2023/04/01 14:50:23;;;;;;;;;;;20.00;48.00;;;;;;4951117;29;19911;-77
2023/04/01 14:53:07;;;;;;;;;;;20.20;48.00;;;;;;4950780;29;20418;-77